createdAt,value
2017-09-27T00:02:03.300Z,15.60
2017-09-27T00:07:06.703Z,19.30
2017-09-27T00:12:09.359Z,21.63
2017-09-27T00:17:12.002Z,17.70
2017-09-27T00:22:14.640Z,14.97
2017-09-27T00:27:17.292Z,15.27
2017-09-27T00:32:19.932Z,15.07
2017-09-27T00:37:22.569Z,15.20
2017-09-27T00:42:25.212Z,17.87
2017-09-27T00:47:27.851Z,15.40
2017-09-27T00:52:30.559Z,15.23
2017-09-27T00:57:33.205Z,15.97
2017-09-27T01:02:36.610Z,17.80
2017-09-27T01:07:39.243Z,18.20
2017-09-27T01:12:42.659Z,17.20
2017-09-27T01:17:46.068Z,14.43
2017-09-27T01:22:48.718Z,17.40
2017-09-27T01:27:51.361Z,15.20
2017-09-27T01:32:53.999Z,16.93
2017-09-27T01:37:56.656Z,15.33
2017-09-27T01:42:59.348Z,16.90
2017-09-27T01:48:01.994Z,15.80
2017-09-27T01:53:04.660Z,18.40
2017-09-27T01:58:07.309Z,17.27
2017-09-27T02:03:09.951Z,17.73
2017-09-27T02:08:12.591Z,22.07
2017-09-27T02:13:15.990Z,14.40
2017-09-27T02:18:18.631Z,18.13
2017-09-27T02:23:21.273Z,19.43
2017-09-27T02:28:23.914Z,16.80
2017-09-27T02:33:27.324Z,14.07
2017-09-27T02:38:29.963Z,13.20
2017-09-27T02:43:32.584Z,14.67
2017-09-27T02:48:35.234Z,15.23
2017-09-27T02:53:38.643Z,17.50
2017-09-27T02:58:42.093Z,14.20
2017-09-27T03:03:44.786Z,18.47
2017-09-27T03:08:48.260Z,20.40
2017-09-27T03:13:50.964Z,15.97
2017-09-27T03:18:53.688Z,22.83
2017-09-27T03:23:57.153Z,18.10
2017-09-27T03:28:59.838Z,21.13
2017-09-27T03:34:02.531Z,19.80
2017-09-27T03:39:05.227Z,27.27
2017-09-27T03:44:07.966Z,16.10
2017-09-27T03:49:10.666Z,14.80
2017-09-27T03:54:13.394Z,17.50
2017-09-27T03:59:16.088Z,23.13
2017-09-27T04:04:18.750Z,20.60
2017-09-27T04:09:21.428Z,18.20
2017-09-27T04:14:24.121Z,19.60
2017-09-27T04:19:26.821Z,21.40
2017-09-27T04:24:30.301Z,31.13
2017-09-27T04:29:33.007Z,20.17
2017-09-27T04:34:35.703Z,27.70
2017-09-27T04:39:38.411Z,25.67
2017-09-27T04:44:41.447Z,19.83
2017-09-27T04:49:44.185Z,22.13
2017-09-27T04:54:46.876Z,25.20
2017-09-27T04:59:49.602Z,25.67
2017-09-27T05:04:52.288Z,20.33
2017-09-27T05:09:54.980Z,19.30
2017-09-27T05:14:57.682Z,21.30
2017-09-27T05:20:00.414Z,21.70
2017-09-27T05:25:03.104Z,26.50
2017-09-27T05:30:06.106Z,21.87
2017-09-27T05:35:08.830Z,29.73
2017-09-27T05:40:11.527Z,35.90
2017-09-27T05:45:14.207Z,27.63
2017-09-27T05:50:16.914Z,23.23
2017-09-27T05:55:19.711Z,23.83
2017-09-27T06:00:22.458Z,25.27
2017-09-27T06:05:25.205Z,25.97
2017-09-27T06:10:27.923Z,23.53
2017-09-27T06:15:30.635Z,34.20
2017-09-27T06:20:33.380Z,36.50
2017-09-27T06:25:36.083Z,27.27
2017-09-27T06:30:38.779Z,32.57
2017-09-27T06:35:41.478Z,30.80
2017-09-27T06:40:44.194Z,27.67
2017-09-27T06:45:46.871Z,38.70
2017-09-27T06:50:49.579Z,33.73
2017-09-27T06:55:52.291Z,35.80
2017-09-27T07:00:54.987Z,42.07
2017-09-27T07:05:57.684Z,32.10
2017-09-27T07:11:00.386Z,32.73
2017-09-27T07:16:03.860Z,30.80
2017-09-27T07:21:06.600Z,28.00
2017-09-27T07:26:09.287Z,28.80
2017-09-27T07:31:11.987Z,40.13
2017-09-27T07:36:14.698Z,32.20
2017-09-27T07:41:17.407Z,31.77
2017-09-27T07:46:20.090Z,46.50
2017-09-27T07:51:22.808Z,30.77
2017-09-27T07:56:25.526Z,35.57
2017-09-27T08:01:28.246Z,27.40
2017-09-27T08:06:30.994Z,30.87
2017-09-27T08:11:33.691Z,28.30
2017-09-27T08:16:36.397Z,30.83
2017-09-27T08:21:39.093Z,28.07
2017-09-27T08:26:41.791Z,25.53
2017-09-27T08:31:44.497Z,25.70
2017-09-27T08:36:47.198Z,32.00
2017-09-27T08:41:49.904Z,27.37
2017-09-27T08:46:52.593Z,30.77
2017-09-27T08:51:55.322Z,27.73
2017-09-27T08:56:58.023Z,30.23
2017-09-27T09:02:00.727Z,22.40
2017-09-27T09:07:03.450Z,26.07
2017-09-27T09:12:06.164Z,25.70
2017-09-27T09:17:08.862Z,23.20
2017-09-27T09:22:11.571Z,23.83
2017-09-27T09:27:14.286Z,25.10
2017-09-27T09:32:17.005Z,29.17
2017-09-27T09:37:19.717Z,26.73
2017-09-27T09:42:22.418Z,27.53
2017-09-27T09:47:25.142Z,27.50
2017-09-27T09:52:27.876Z,34.03
2017-09-27T09:57:30.595Z,27.47
2017-09-27T10:02:33.333Z,31.10
2017-09-27T10:07:36.062Z,32.00
2017-09-27T10:12:38.804Z,30.13
2017-09-27T10:17:41.525Z,28.40
2017-09-27T10:22:44.262Z,35.10
2017-09-27T10:27:46.976Z,33.63
2017-09-27T10:32:49.713Z,29.53
2017-09-27T10:37:52.422Z,30.47
2017-09-27T10:42:55.127Z,33.67
2017-09-27T10:47:57.825Z,39.30
2017-09-27T10:53:00.554Z,34.00
2017-09-27T10:58:03.282Z,35.07
2017-09-27T11:03:05.991Z,38.40
2017-09-27T11:08:08.742Z,35.27
2017-09-27T11:13:11.504Z,37.57
2017-09-27T11:18:14.228Z,33.80
2017-09-27T11:23:16.948Z,32.93
2017-09-27T11:28:19.668Z,39.43
2017-09-27T11:33:22.378Z,33.30
2017-09-27T11:38:25.092Z,33.57
2017-09-27T11:43:27.818Z,31.63
2017-09-27T11:48:31.334Z,30.67
2017-09-27T11:53:34.086Z,33.30
2017-09-27T11:58:36.814Z,28.60
2017-09-27T12:03:39.537Z,31.00
2017-09-27T12:08:42.314Z,24.77
2017-09-27T12:13:45.059Z,27.30
2017-09-27T12:18:47.816Z,24.70
2017-09-27T12:23:50.562Z,23.17
2017-09-27T12:28:53.239Z,25.80
2017-09-27T12:33:55.956Z,29.30
2017-09-27T12:38:58.690Z,21.93
2017-09-27T12:44:01.414Z,23.50
2017-09-27T12:49:04.147Z,23.23
2017-09-27T12:54:06.872Z,28.67
2017-09-27T12:59:09.615Z,22.20
2017-09-27T13:04:12.358Z,18.83
2017-09-27T13:09:15.063Z,19.80
2017-09-27T13:14:17.810Z,14.90
2017-09-27T13:19:20.527Z,16.50
2017-09-27T13:24:23.546Z,15.93
2017-09-27T13:29:26.256Z,15.50
2017-09-27T13:34:29.007Z,12.33
2017-09-27T13:39:31.790Z,14.57
2017-09-27T13:44:35.251Z,19.10
2017-09-27T13:49:38.014Z,14.20
2017-09-27T13:54:40.714Z,18.90
2017-09-27T13:59:43.451Z,10.73
2017-09-27T14:04:46.187Z,14.00
2017-09-27T14:09:48.976Z,15.70
2017-09-27T14:14:51.728Z,16.20
2017-09-27T14:19:54.500Z,14.90
2017-09-27T14:24:57.226Z,18.77
2017-09-27T14:29:59.960Z,12.00
2017-09-27T14:35:02.729Z,16.07
2017-09-27T14:40:05.471Z,18.43
2017-09-27T14:45:08.222Z,14.87
2017-09-27T14:50:11.019Z,17.63
2017-09-27T14:55:13.801Z,9.27
2017-09-27T15:00:17.394Z,8.20
2017-09-27T15:05:20.075Z,8.40
2017-09-27T15:10:22.795Z,11.43
2017-09-27T15:15:25.520Z,15.90
2017-09-27T15:20:28.132Z,16.37
2017-09-27T15:25:30.765Z,10.43
2017-09-27T15:30:33.392Z,8.40
2017-09-27T15:35:36.010Z,9.87
2017-09-27T15:40:38.626Z,10.37
2017-09-27T15:45:41.552Z,10.47
2017-09-27T15:50:44.160Z,8.13
2017-09-27T15:55:46.776Z,10.43
2017-09-27T16:00:49.461Z,11.83
2017-09-27T16:05:52.094Z,14.93
2017-09-27T16:10:54.736Z,15.50
2017-09-27T16:15:57.385Z,12.37
2017-09-27T16:21:00.069Z,13.77
2017-09-27T16:26:02.719Z,10.57
2017-09-27T16:31:05.374Z,18.63
2017-09-27T16:36:08.009Z,9.90
2017-09-27T16:41:10.644Z,12.80
2017-09-27T16:46:13.265Z,13.50
2017-09-27T16:51:15.875Z,9.77
2017-09-27T16:56:18.520Z,22.80
2017-09-27T17:01:21.138Z,11.30
2017-09-27T17:06:23.753Z,18.07
2017-09-27T17:11:27.192Z,16.23
2017-09-27T17:16:29.835Z,14.80
2017-09-27T17:21:32.475Z,19.60
2017-09-27T17:26:35.099Z,14.70
2017-09-27T17:31:37.722Z,17.93
2017-09-27T17:36:40.340Z,13.20
2017-09-27T17:41:42.964Z,16.13
2017-09-27T17:46:45.592Z,14.20
2017-09-27T17:51:48.207Z,13.20
2017-09-27T17:56:50.840Z,14.23
2017-09-27T18:01:53.494Z,14.50
2017-09-27T18:07:01.859Z,15.47
2017-09-27T18:12:10.257Z,19.10
2017-09-27T18:17:12.948Z,20.90
2017-09-27T18:22:15.577Z,15.40
2017-09-27T18:27:18.220Z,18.63
2017-09-27T18:32:20.871Z,24.80
2017-09-27T18:37:23.517Z,30.00
2017-09-27T18:42:26.140Z,22.50
2017-09-27T18:47:29.573Z,12.20
2017-09-27T18:52:32.210Z,26.73
2017-09-27T18:57:34.822Z,17.50
2017-09-27T19:02:37.429Z,17.20
2017-09-27T19:07:40.053Z,20.90
2017-09-27T19:12:42.685Z,15.03
2017-09-27T19:17:47.033Z,17.60
2017-09-27T19:22:49.626Z,22.40
2017-09-27T19:27:52.267Z,20.83
2017-09-27T19:32:54.878Z,14.63
2017-09-27T19:37:57.479Z,14.00
2017-09-27T19:43:00.104Z,25.10
2017-09-27T19:48:03.527Z,15.97
2017-09-27T19:53:06.895Z,17.90
2017-09-27T19:58:09.539Z,16.03
2017-09-27T20:03:12.154Z,16.60
2017-09-27T20:08:15.534Z,15.27
2017-09-27T20:13:18.143Z,16.20
2017-09-27T20:18:20.752Z,18.63
2017-09-27T20:23:24.142Z,16.13
2017-09-27T20:28:26.759Z,25.10
2017-09-27T20:33:29.374Z,17.80
2017-09-27T20:38:31.990Z,19.33
2017-09-27T20:43:34.590Z,14.07
2017-09-27T20:48:37.382Z,18.07
2017-09-27T20:53:39.986Z,28.30
2017-09-27T20:58:43.370Z,19.90
2017-09-27T21:03:45.962Z,18.63
2017-09-27T21:08:48.588Z,19.77
2017-09-27T21:13:51.194Z,15.33
2017-09-27T21:18:54.563Z,17.20
2017-09-27T21:23:57.187Z,20.97
2017-09-27T21:28:59.802Z,19.93
2017-09-27T21:34:02.389Z,15.10
2017-09-27T21:39:05.034Z,20.00
2017-09-27T21:44:07.635Z,16.40
2017-09-27T21:49:10.246Z,20.70
2017-09-27T21:54:12.858Z,20.40
2017-09-27T21:59:15.471Z,28.23
2017-09-27T22:04:18.078Z,19.10
2017-09-27T22:09:20.707Z,15.87
2017-09-27T22:14:23.320Z,15.60
2017-09-27T22:19:26.695Z,19.03
2017-09-27T22:24:29.310Z,18.03
2017-09-27T22:29:32.706Z,16.93
2017-09-27T22:34:35.340Z,14.73
2017-09-27T22:39:37.945Z,22.73
2017-09-27T22:44:40.565Z,48.53
2017-09-27T22:49:43.196Z,23.03
2017-09-27T22:54:45.810Z,18.77
2017-09-27T22:59:48.422Z,21.47
2017-09-27T23:04:51.035Z,16.87
2017-09-27T23:09:53.630Z,18.00
2017-09-27T23:14:56.240Z,21.73
2017-09-27T23:19:58.850Z,19.63
2017-09-27T23:25:01.504Z,21.03
2017-09-27T23:30:04.128Z,20.53
2017-09-27T23:35:06.756Z,18.47
2017-09-27T23:40:09.363Z,21.93
2017-09-27T23:45:12.730Z,19.53
2017-09-27T23:50:15.365Z,20.97
2017-09-27T23:55:17.961Z,23.30
